createdAt,value
2022-10-17T00:01:09.721Z,73.63
2022-10-17T00:03:39.025Z,73.84
2022-10-17T00:06:10.527Z,74.28
2022-10-17T00:08:40.884Z,74.36
2022-10-17T00:11:14.949Z,74.52
2022-10-17T00:13:45.316Z,74.82
2022-10-17T00:16:13.559Z,75.28
2022-10-17T00:18:41.379Z,75.66
2022-10-17T00:21:17.364Z,75.74
2022-10-17T00:23:46.720Z,75.45
2022-10-17T00:26:15.745Z,76.00
2022-10-17T00:28:48.358Z,76.41
2022-10-17T00:31:19.258Z,76.85
2022-10-17T00:33:47.956Z,77.55
2022-10-17T00:36:25.223Z,78.31
2022-10-17T00:38:56.911Z,78.62
2022-10-17T00:41:30.477Z,79.11
2022-10-17T00:44:06.192Z,78.53
2022-10-17T00:46:36.621Z,78.64
2022-10-17T00:49:10.548Z,76.45
2022-10-17T00:51:48.629Z,74.49
2022-10-17T00:54:19.677Z,74.15
2022-10-17T00:56:48.057Z,73.99
2022-10-17T00:59:19.549Z,74.30
2022-10-17T01:02:19.759Z,71.93
2022-10-17T01:04:51.887Z,69.99
2022-10-17T01:07:19.585Z,66.70
2022-10-17T01:09:47.809Z,63.16
2022-10-17T01:12:26.259Z,62.59
2022-10-17T01:15:26.774Z,63.80
2022-10-17T01:18:23.099Z,62.83
2022-10-17T01:21:20.887Z,63.38
2022-10-17T01:24:12.939Z,64.24
2022-10-17T01:26:59.371Z,64.49
2022-10-17T01:30:18.065Z,66.34
2022-10-17T01:32:59.240Z,65.47
2022-10-17T01:36:00.530Z,65.48
2022-10-17T01:38:46.590Z,66.42
2022-10-17T01:41:41.811Z,67.63
2022-10-17T01:44:23.405Z,68.79
2022-10-17T01:46:52.475Z,69.69
2022-10-17T01:49:24.984Z,70.38
2022-10-17T01:51:59.586Z,70.76
2022-10-17T01:54:35.814Z,71.08
2022-10-17T01:57:06.786Z,71.38
2022-10-17T01:59:44.951Z,71.77
2022-10-17T02:02:14.504Z,71.95
2022-10-17T02:04:43.179Z,72.24
2022-10-17T02:07:13.375Z,72.36
2022-10-17T02:09:41.056Z,72.45
2022-10-17T02:12:34.716Z,72.64
2022-10-17T02:15:43.470Z,72.77
2022-10-17T02:18:54.594Z,72.98
2022-10-17T02:22:23.925Z,73.33
2022-10-17T02:25:20.931Z,73.44
2022-10-17T02:28:23.894Z,73.39
2022-10-17T02:31:07.811Z,73.34
2022-10-17T02:33:46.311Z,73.07
2022-10-17T02:36:29.583Z,73.33
2022-10-17T02:38:58.195Z,73.57
2022-10-17T02:41:26.295Z,73.89
2022-10-17T02:43:56.631Z,74.18
2022-10-17T02:46:28.769Z,74.64
2022-10-17T02:49:24.093Z,74.87
2022-10-17T02:52:14.556Z,75.11
2022-10-17T02:54:52.705Z,75.22
2022-10-17T02:57:39.817Z,75.48
2022-10-17T03:00:13.677Z,75.95
2022-10-17T03:02:51.250Z,76.12
2022-10-17T03:05:28.786Z,76.27
2022-10-17T03:07:56.881Z,76.31
2022-10-17T03:10:24.689Z,76.38
2022-10-17T03:12:52.458Z,76.34
2022-10-17T03:15:20.160Z,76.20
2022-10-17T03:17:47.889Z,76.25
2022-10-17T03:20:15.819Z,76.24
2022-10-17T03:22:43.539Z,76.19
2022-10-17T03:25:11.187Z,76.20
2022-10-17T03:27:38.911Z,76.31
2022-10-17T03:30:07.677Z,76.31
2022-10-17T03:32:36.059Z,76.38
2022-10-17T03:35:04.661Z,76.32
2022-10-17T03:37:32.581Z,76.40
2022-10-17T03:40:00.534Z,76.43
2022-10-17T03:42:28.409Z,76.39
2022-10-17T03:44:56.033Z,76.35
2022-10-17T03:47:23.711Z,76.31
2022-10-17T03:49:53.711Z,76.20
2022-10-17T03:52:21.667Z,76.16
2022-10-17T03:54:51.191Z,76.13
2022-10-17T03:57:19.675Z,76.23
2022-10-17T03:59:47.419Z,76.46
2022-10-17T04:02:15.097Z,76.66
2022-10-17T04:04:42.753Z,76.72
2022-10-17T04:07:10.459Z,76.74
2022-10-17T04:09:38.182Z,76.82
2022-10-17T04:12:05.913Z,76.73
2022-10-17T04:14:33.695Z,76.71
2022-10-17T04:17:01.331Z,77.03
2022-10-17T04:19:29.193Z,77.09
2022-10-17T04:21:56.937Z,77.07
2022-10-17T04:24:25.833Z,77.25
2022-10-17T04:26:54.848Z,77.34
2022-10-17T04:29:22.619Z,77.40
2022-10-17T04:31:51.792Z,77.40
2022-10-17T04:34:19.862Z,77.36
2022-10-17T04:36:47.691Z,77.34
2022-10-17T04:39:15.548Z,77.31
2022-10-17T04:41:43.488Z,77.36
2022-10-17T04:44:11.305Z,77.53
2022-10-17T04:46:39.369Z,77.62
2022-10-17T04:49:07.160Z,77.73
2022-10-17T04:51:35.013Z,77.76
2022-10-17T04:54:02.848Z,77.66
2022-10-17T04:56:30.969Z,77.66
2022-10-17T04:58:59.776Z,77.59
2022-10-17T05:01:27.626Z,77.46
2022-10-17T05:03:56.112Z,77.39
2022-10-17T05:06:27.966Z,77.42
2022-10-17T05:08:56.556Z,77.50
2022-10-17T05:11:28.108Z,77.63
2022-10-17T05:14:01.918Z,77.69
2022-10-17T05:16:31.010Z,77.83
2022-10-17T05:18:59.600Z,78.03
2022-10-17T05:21:29.406Z,78.28
2022-10-17T05:23:57.540Z,78.63
2022-10-17T05:26:26.346Z,78.82
2022-10-17T05:28:54.856Z,79.07
2022-10-17T05:31:22.680Z,79.20
2022-10-17T05:33:50.419Z,79.34
2022-10-17T05:36:18.074Z,79.52
2022-10-17T05:38:51.206Z,79.74
2022-10-17T05:41:20.097Z,79.78
2022-10-17T05:43:47.938Z,79.85
2022-10-17T05:46:15.728Z,79.93
2022-10-17T05:48:46.189Z,80.03
2022-10-17T05:51:14.133Z,80.09
2022-10-17T05:53:45.651Z,80.17
2022-10-17T05:56:14.979Z,80.18
2022-10-17T05:58:50.295Z,80.19
2022-10-17T06:01:19.353Z,80.27
2022-10-17T06:03:47.065Z,80.34
2022-10-17T06:06:15.519Z,80.40
2022-10-17T06:08:44.057Z,80.44
2022-10-17T06:11:13.207Z,80.47
2022-10-17T06:13:41.489Z,80.48
2022-10-17T06:16:11.654Z,80.46
2022-10-17T06:18:39.489Z,80.50
2022-10-17T06:21:11.473Z,80.52
2022-10-17T06:23:39.198Z,80.54
2022-10-17T06:26:07.782Z,80.53
2022-10-17T06:28:36.712Z,80.57
2022-10-17T06:31:11.196Z,80.52
2022-10-17T06:33:39.443Z,80.51
2022-10-17T06:42:49.072Z,81.08
2022-10-17T06:45:15.525Z,81.27
2022-10-17T06:47:41.870Z,81.41
2022-10-17T06:50:08.652Z,81.39
2022-10-17T06:52:35.198Z,81.38
2022-10-17T06:57:32.815Z,81.56
2022-10-17T06:59:59.151Z,81.72
2022-10-17T07:02:25.769Z,81.89
2022-10-17T07:04:52.231Z,82.06
2022-10-17T07:07:18.610Z,82.18
2022-10-17T07:09:44.935Z,82.24
2022-10-17T07:12:12.226Z,82.35
2022-10-17T07:14:38.692Z,82.40
2022-10-17T07:17:05.257Z,82.52
2022-10-17T07:19:32.099Z,82.65
2022-10-17T07:21:58.656Z,82.69
2022-10-17T07:24:25.234Z,82.70
2022-10-17T07:26:51.974Z,82.70
2022-10-17T07:29:18.401Z,82.71
2022-10-17T07:31:48.274Z,82.67
2022-10-17T07:34:17.866Z,82.71
2022-10-17T07:36:44.879Z,82.40
2022-10-17T07:39:14.374Z,81.98
2022-10-17T07:41:40.923Z,81.31
2022-10-17T07:44:07.341Z,81.08
2022-10-17T07:46:33.836Z,80.94
2022-10-17T07:49:00.187Z,80.61
2022-10-17T07:51:27.295Z,80.60
2022-10-17T07:53:53.588Z,79.86
2022-10-17T07:56:23.977Z,79.29
2022-10-17T07:58:52.019Z,79.36
2022-10-17T08:01:18.821Z,78.51
2022-10-17T08:03:47.962Z,78.64
2022-10-17T08:06:14.829Z,78.76
2022-10-17T08:08:41.691Z,76.74
2022-10-17T08:11:12.297Z,76.25
2022-10-17T08:13:39.870Z,76.26
2022-10-17T08:16:09.448Z,76.11
2022-10-17T08:18:36.687Z,75.01
2022-10-17T08:21:08.731Z,74.29
2022-10-17T08:23:36.178Z,74.32
2022-10-17T08:26:05.667Z,74.00
2022-10-17T08:28:36.051Z,73.61
2022-10-17T08:31:18.267Z,72.55
2022-10-17T08:33:45.369Z,71.98
2022-10-17T08:36:18.336Z,71.11
2022-10-17T08:38:47.912Z,71.28
2022-10-17T08:41:51.739Z,71.12
2022-10-17T08:44:44.786Z,69.31
2022-10-17T08:47:18.760Z,68.61
2022-10-17T08:49:52.969Z,67.98
2022-10-17T08:52:34.240Z,65.69
2022-10-17T08:55:00.651Z,63.92
2022-10-17T08:57:28.453Z,63.06
2022-10-17T08:59:56.238Z,61.96
2022-10-17T09:02:43.077Z,61.43
2022-10-17T09:05:28.123Z,61.18
2022-10-17T09:08:09.051Z,60.01
2022-10-17T09:11:00.207Z,59.98
2022-10-17T09:14:10.631Z,58.29
2022-10-17T09:17:03.245Z,57.16
2022-10-17T09:19:32.180Z,55.53
2022-10-17T09:22:08.723Z,54.23
2022-10-17T09:25:02.735Z,54.44
2022-10-17T09:27:48.960Z,53.94
2022-10-17T09:30:45.836Z,53.01
2022-10-17T09:33:28.532Z,51.95
2022-10-17T09:36:08.647Z,51.98
2022-10-17T09:38:52.279Z,51.52
2022-10-17T09:41:44.909Z,51.01
2022-10-17T09:44:29.052Z,49.95
2022-10-17T09:47:25.174Z,49.88
2022-10-17T09:49:52.209Z,49.36
2022-10-17T09:52:36.200Z,49.10
2022-10-17T09:55:21.981Z,48.87
2022-10-17T09:58:00.903Z,49.11
2022-10-17T10:00:31.863Z,49.11
2022-10-17T10:03:17.840Z,49.04
2022-10-17T10:05:58.788Z,48.77
2022-10-17T10:08:38.668Z,48.83
2022-10-17T10:11:13.349Z,48.52
2022-10-17T10:13:40.461Z,47.91
2022-10-17T10:16:18.230Z,47.54
2022-10-17T10:18:47.546Z,46.85
2022-10-17T10:21:27.083Z,47.07
2022-10-17T10:24:08.766Z,46.29
2022-10-17T10:26:59.419Z,46.11
2022-10-17T10:29:36.615Z,46.00
2022-10-17T10:32:19.181Z,45.60
2022-10-17T10:35:20.709Z,45.73
2022-10-17T10:37:58.562Z,45.91
2022-10-17T10:40:36.776Z,45.80
2022-10-17T10:43:05.683Z,45.93
2022-10-17T10:45:47.446Z,45.94
2022-10-17T10:48:27.753Z,46.53
2022-10-17T10:51:02.677Z,46.66
2022-10-17T10:53:56.589Z,46.57
2022-10-17T10:56:32.762Z,45.82
2022-10-17T10:59:08.326Z,45.08
2022-10-17T11:01:44.134Z,44.55
2022-10-17T11:04:46.670Z,44.64
2022-10-17T11:07:56.069Z,44.56
2022-10-17T11:10:51.793Z,44.18
2022-10-17T11:13:43.108Z,44.18
2022-10-17T11:16:50.097Z,44.75
2022-10-17T11:19:43.481Z,45.33
2022-10-17T11:22:23.978Z,45.24
2022-10-17T11:28:39.978Z,44.92
2022-10-17T11:31:20.360Z,44.64
2022-10-17T11:34:46.349Z,44.20
2022-10-17T11:38:16.210Z,44.36
2022-10-17T11:40:50.812Z,43.73
2022-10-17T11:44:02.583Z,43.93
2022-10-17T11:46:35.910Z,43.74
2022-10-17T11:49:20.362Z,43.50
2022-10-17T11:52:10.054Z,43.46
2022-10-17T11:54:51.323Z,43.75
2022-10-17T11:57:54.336Z,43.67
2022-10-17T12:00:45.134Z,43.98
2022-10-17T12:03:41.312Z,44.17
2022-10-17T12:06:20.309Z,44.23
2022-10-17T12:09:00.023Z,43.92
2022-10-17T12:11:57.866Z,43.37
2022-10-17T12:14:42.149Z,43.61
2022-10-17T12:17:40.102Z,43.73
2022-10-17T12:20:25.231Z,43.90
2022-10-17T12:23:11.747Z,43.72
2022-10-17T12:25:49.452Z,43.70
2022-10-17T12:28:42.182Z,43.63
2022-10-17T12:31:15.717Z,43.77
2022-10-17T12:33:59.278Z,44.20
2022-10-17T12:36:26.903Z,44.44
2022-10-17T12:39:33.168Z,44.54
2022-10-17T12:41:59.545Z,44.79
2022-10-17T12:44:27.205Z,45.31
2022-10-17T12:47:07.473Z,45.75
2022-10-17T12:49:45.868Z,45.76
2022-10-17T12:52:29.005Z,45.57
2022-10-17T12:55:11.927Z,45.87
2022-10-17T12:58:03.241Z,45.72
2022-10-17T13:00:49.856Z,45.65
2022-10-17T13:03:31.215Z,45.80
2022-10-17T13:06:04.740Z,45.82
2022-10-17T13:08:38.895Z,46.12
2022-10-17T13:11:06.142Z,46.37
2022-10-17T13:13:42.027Z,46.74
2022-10-17T13:16:08.912Z,47.01
2022-10-17T13:18:35.415Z,47.35
2022-10-17T13:21:16.244Z,47.79
2022-10-17T13:23:42.846Z,48.30
2022-10-17T13:26:25.041Z,48.76
2022-10-17T13:29:13.823Z,49.02
2022-10-17T13:31:44.533Z,49.43
2022-10-17T13:34:24.365Z,49.86
2022-10-17T13:36:57.666Z,50.35
2022-10-17T13:39:44.985Z,50.76
2022-10-17T13:42:21.466Z,50.88
2022-10-17T13:44:48.067Z,51.07
2022-10-17T13:47:31.900Z,51.37
2022-10-17T13:49:59.111Z,51.43
2022-10-17T13:52:29.617Z,51.71
2022-10-17T13:55:17.472Z,52.08
2022-10-17T13:57:47.037Z,52.28
2022-10-17T14:00:22.323Z,52.63
2022-10-17T14:02:48.901Z,52.78
2022-10-17T14:05:20.201Z,53.06
2022-10-17T14:10:43.181Z,53.59
2022-10-17T14:13:33.423Z,53.88
2022-10-17T14:16:02.772Z,54.04
2022-10-17T14:18:36.481Z,54.58
2022-10-17T14:21:34.394Z,54.67
2022-10-17T14:24:12.210Z,55.18
2022-10-17T14:26:49.957Z,55.23
2022-10-17T14:29:54.048Z,55.74
2022-10-17T14:32:21.815Z,56.13
2022-10-17T14:35:00.712Z,56.43
2022-10-17T14:37:49.676Z,56.77
2022-10-17T14:40:27.136Z,56.87
2022-10-17T14:42:57.068Z,57.24
2022-10-17T14:45:30.457Z,57.47
2022-10-17T14:48:13.225Z,57.64
2022-10-17T14:50:41.549Z,57.82
2022-10-17T14:54:05.053Z,58.15
2022-10-17T14:56:41.445Z,58.17
2022-10-17T14:59:12.626Z,58.42
2022-10-17T15:01:42.274Z,58.52
2022-10-17T15:04:10.397Z,58.62
2022-10-17T15:06:36.838Z,58.73
2022-10-17T15:09:04.089Z,58.93
2022-10-17T15:11:30.579Z,59.11
2022-10-17T15:13:57.088Z,59.29
2022-10-17T15:16:26.160Z,59.47
2022-10-17T15:18:53.841Z,59.73
2022-10-17T15:21:38.445Z,59.89
2022-10-17T15:24:07.193Z,60.17
2022-10-17T15:26:34.460Z,60.38
2022-10-17T15:29:01.231Z,60.50
2022-10-17T15:31:30.653Z,60.76
2022-10-17T15:33:57.651Z,60.90
2022-10-17T15:36:34.432Z,61.22
2022-10-17T15:39:02.030Z,61.38
2022-10-17T15:41:31.126Z,61.69
2022-10-17T15:43:58.219Z,61.91
2022-10-17T15:46:42.118Z,62.55
2022-10-17T15:49:14.350Z,62.93
2022-10-17T15:51:40.902Z,63.18
2022-10-17T15:54:07.343Z,63.29
2022-10-17T15:56:39.688Z,63.28
2022-10-17T15:59:13.407Z,63.43
2022-10-17T16:01:40.068Z,63.64
2022-10-17T16:04:06.609Z,63.79
2022-10-17T16:06:33.056Z,64.06
2022-10-17T16:08:59.859Z,64.29
2022-10-17T16:11:34.875Z,64.45
2022-10-17T16:14:06.506Z,64.67
2022-10-17T16:16:33.557Z,65.05
2022-10-17T16:19:00.982Z,65.28
2022-10-17T16:21:32.274Z,65.57
2022-10-17T16:24:00.038Z,65.93
2022-10-17T16:26:28.374Z,66.11
2022-10-17T16:29:02.008Z,66.24
2022-10-17T16:31:36.187Z,66.43
2022-10-17T16:34:04.265Z,66.64
2022-10-17T16:36:30.773Z,66.84
2022-10-17T16:38:57.402Z,67.26
2022-10-17T16:41:31.993Z,67.34
2022-10-17T16:44:01.505Z,67.56
2022-10-17T16:46:30.148Z,67.65
2022-10-17T16:48:57.610Z,67.93
2022-10-17T16:51:24.128Z,68.38
2022-10-17T16:53:53.875Z,68.86
2022-10-17T16:56:23.619Z,68.92
2022-10-17T16:58:51.261Z,69.09
2022-10-17T17:01:22.725Z,69.32
2022-10-17T17:03:51.096Z,69.54
2022-10-17T17:06:24.587Z,69.51
2022-10-17T17:08:51.033Z,69.54
2022-10-17T17:11:19.921Z,69.58
2022-10-17T17:13:46.767Z,69.84
2022-10-17T17:16:24.758Z,70.01
2022-10-17T17:19:04.445Z,70.32
2022-10-17T17:21:32.262Z,70.51
2022-10-17T17:24:01.507Z,70.57
2022-10-17T17:26:34.255Z,70.75
2022-10-17T17:29:01.344Z,71.02
2022-10-17T17:31:31.353Z,71.28
2022-10-17T17:34:00.656Z,71.43
2022-10-17T17:36:31.434Z,71.51
2022-10-17T17:39:35.884Z,71.52
2022-10-17T17:42:02.633Z,71.72
2022-10-17T17:44:29.134Z,71.90
2022-10-17T17:46:55.541Z,72.07
2022-10-17T17:49:22.126Z,72.19
2022-10-17T17:51:48.490Z,72.26
2022-10-17T17:54:14.993Z,72.46
2022-10-17T17:56:41.670Z,72.62
2022-10-17T17:59:12.044Z,72.74
2022-10-17T18:01:39.388Z,72.85
2022-10-17T18:04:08.131Z,73.09
2022-10-17T18:06:37.255Z,73.13
2022-10-17T18:09:05.509Z,73.14
2022-10-17T18:11:32.550Z,73.21
2022-10-17T18:14:07.061Z,73.53
2022-10-17T18:16:35.836Z,73.61
2022-10-17T18:19:07.011Z,73.71
2022-10-17T18:21:35.490Z,73.82
2022-10-17T18:24:04.506Z,73.81
2022-10-17T18:26:32.119Z,73.85
2022-10-17T18:28:58.868Z,73.92
2022-10-17T18:31:31.477Z,74.03
2022-10-17T18:33:59.757Z,74.01
2022-10-17T18:36:28.016Z,73.99
2022-10-17T18:38:55.657Z,74.18
2022-10-17T18:41:25.161Z,74.27
2022-10-17T18:43:53.882Z,74.48
2022-10-17T18:46:29.649Z,74.66
2022-10-17T18:48:56.329Z,74.61
2022-10-17T18:51:25.079Z,74.50
2022-10-17T18:53:54.741Z,74.39
2022-10-17T18:56:22.678Z,74.52
2022-10-17T18:58:49.471Z,75.03
2022-10-17T19:01:21.018Z,75.24
2022-10-17T19:03:49.579Z,75.52
2022-10-17T19:06:19.875Z,75.94
2022-10-17T19:08:47.488Z,76.25
2022-10-17T19:11:18.297Z,76.34
2022-10-17T19:13:47.588Z,76.29
2022-10-17T19:16:27.680Z,76.62
2022-10-17T19:19:20.606Z,76.79
2022-10-17T19:21:47.604Z,76.98
2022-10-17T19:24:24.691Z,76.99
2022-10-17T19:35:28.626Z,76.44
2022-10-17T19:37:56.295Z,76.39
2022-10-17T19:40:23.982Z,76.40
2022-10-17T19:42:52.254Z,76.53
2022-10-17T19:45:20.059Z,76.53
2022-10-17T19:47:47.784Z,76.63
2022-10-17T19:50:15.759Z,76.82
2022-10-17T19:52:43.569Z,76.92
2022-10-17T19:55:11.340Z,76.99
2022-10-17T19:57:39.157Z,77.09
2022-10-17T20:00:07.809Z,77.03
2022-10-17T20:02:35.589Z,77.08
2022-10-17T20:05:18.135Z,77.07
2022-10-17T20:07:46.831Z,77.08
2022-10-17T20:10:14.653Z,77.07
2022-10-17T20:12:42.350Z,77.11
2022-10-17T20:15:10.845Z,77.07
2022-10-17T20:17:38.935Z,77.02
2022-10-17T20:20:08.872Z,76.98
2022-10-17T20:22:36.824Z,76.88
2022-10-17T20:25:05.373Z,76.80
2022-10-17T20:27:33.278Z,76.71
2022-10-17T20:30:02.529Z,76.62
2022-10-17T20:32:39.551Z,76.53
2022-10-17T20:35:08.588Z,76.41
2022-10-17T20:37:41.582Z,76.31
2022-10-17T20:43:00.479Z,76.01
2022-10-17T20:45:43.623Z,75.84
2022-10-17T20:48:16.372Z,75.56
2022-10-17T20:50:44.709Z,75.21
2022-10-17T20:56:03.575Z,74.29
2022-10-17T20:58:31.365Z,74.35
2022-10-17T21:00:59.177Z,74.51
2022-10-17T21:03:26.933Z,74.81
2022-10-17T21:05:54.647Z,75.19
2022-10-17T21:08:22.381Z,75.36
2022-10-17T21:10:50.104Z,75.64
2022-10-17T21:13:17.870Z,75.89
2022-10-17T21:15:45.599Z,76.10
2022-10-17T21:18:13.283Z,76.28
2022-10-17T21:20:40.948Z,76.39
2022-10-17T21:23:08.636Z,76.41
2022-10-17T21:25:36.284Z,76.34
2022-10-17T21:28:03.995Z,76.24
2022-10-17T21:30:31.667Z,76.11
2022-10-17T21:32:59.621Z,75.99
2022-10-17T21:35:27.416Z,75.90
2022-10-17T21:37:55.080Z,75.98
2022-10-17T21:40:22.746Z,76.20
2022-10-17T21:42:50.353Z,76.33
2022-10-17T21:45:25.379Z,76.41
2022-10-17T21:48:13.801Z,76.51
2022-10-17T21:50:41.567Z,76.70
2022-10-17T21:53:09.305Z,76.76
2022-10-17T21:55:37.723Z,76.96
2022-10-17T21:58:05.488Z,77.19
2022-10-17T22:00:33.203Z,77.40
2022-10-17T22:03:01.162Z,77.62
2022-10-17T22:05:30.756Z,77.69
2022-10-17T22:07:58.424Z,77.67
2022-10-17T22:10:26.136Z,77.68
2022-10-17T22:12:53.855Z,77.47
2022-10-17T22:15:21.613Z,77.06
2022-10-17T22:17:49.436Z,77.06
2022-10-17T22:20:17.380Z,76.96
2022-10-17T22:22:45.065Z,76.95
2022-10-17T22:25:12.773Z,76.78
2022-10-17T22:27:40.460Z,76.66
2022-10-17T22:30:09.171Z,76.57
2022-10-17T22:32:36.882Z,76.58
2022-10-17T22:35:05.230Z,76.71
2022-10-17T22:37:33.431Z,77.29
2022-10-17T22:40:01.383Z,77.30
2022-10-17T22:42:31.779Z,77.40
2022-10-17T22:45:00.297Z,77.53
2022-10-17T22:47:30.668Z,77.58
2022-10-17T22:49:58.707Z,77.46
2022-10-17T22:52:26.424Z,76.72
2022-10-17T22:54:54.109Z,76.20
2022-10-17T22:57:21.737Z,76.27
2022-10-17T22:59:49.550Z,76.80
2022-10-17T23:02:17.240Z,77.02
2022-10-17T23:04:45.009Z,77.23
2022-10-17T23:07:14.258Z,77.23
2022-10-17T23:09:42.066Z,77.31
2022-10-17T23:12:10.169Z,77.16
2022-10-17T23:14:37.954Z,77.16
2022-10-17T23:17:06.322Z,76.39
2022-10-17T23:19:34.723Z,76.06
2022-10-17T23:22:03.195Z,76.10
2022-10-17T23:24:31.098Z,76.16
2022-10-17T23:26:58.931Z,76.37
2022-10-17T23:29:30.988Z,76.60
2022-10-17T23:31:59.144Z,76.98
2022-10-17T23:34:28.647Z,77.27
2022-10-17T23:36:56.836Z,77.11
2022-10-17T23:39:24.661Z,77.21
2022-10-17T23:41:52.288Z,77.38
2022-10-17T23:44:20.045Z,77.62
2022-10-17T23:46:47.929Z,77.74
2022-10-17T23:49:15.662Z,77.73
2022-10-17T23:51:43.266Z,77.84
2022-10-17T23:54:11.006Z,77.95
2022-10-17T23:56:38.787Z,78.01
2022-10-17T23:59:06.510Z,78.02
